sensor_id;sensor_type;location;lat;lon;timestamp;pressure;altitude;pressure_sealevel;temperature;humidity
48244;BME280;34053;51.088;6.572;2022-12-20T00:00:05;100957.16;;;10.08;74.61
48244;BME280;34053;51.088;6.572;2022-12-20T00:02:35;100952.84;;;10.06;75.08
48244;BME280;34053;51.088;6.572;2022-12-20T00:05:06;100953.78;;;10.02;74.81
48244;BME280;34053;51.088;6.572;2022-12-20T00:07:37;100950.16;;;10.07;74.59
48244;BME280;34053;51.088;6.572;2022-12-20T00:10:08;100949.38;;;10.04;74.88
48244;BME280;34053;51.088;6.572;2022-12-20T00:12:39;100950.34;;;9.98;74.99
48244;BME280;34053;51.088;6.572;2022-12-20T00:15:09;100941.50;;;10.04;74.91
48244;BME280;34053;51.088;6.572;2022-12-20T00:17:40;100952.84;;;10.06;74.80
48244;BME280;34053;51.088;6.572;2022-12-20T00:20:10;100965.06;;;10.07;74.80
48244;BME280;34053;51.088;6.572;2022-12-20T00:22:41;100965.09;;;10.04;74.96
48244;BME280;34053;51.088;6.572;2022-12-20T00:25:11;100971.09;;;10.11;74.90
48244;BME280;34053;51.088;6.572;2022-12-20T00:27:42;100978.91;;;10.12;74.43
48244;BME280;34053;51.088;6.572;2022-12-20T00:30:14;100971.97;;;10.10;75.03
48244;BME280;34053;51.088;6.572;2022-12-20T00:32:45;100972.78;;;10.13;74.88
48244;BME280;34053;51.088;6.572;2022-12-20T00:35:16;100975.44;;;10.10;75.41
48244;BME280;34053;51.088;6.572;2022-12-20T00:37:46;100969.34;;;10.10;74.86
48244;BME280;34053;51.088;6.572;2022-12-20T00:40:17;100974.53;;;10.13;75.34
48244;BME280;34053;51.088;6.572;2022-12-20T00:42:47;100967.63;;;10.08;75.12
48244;BME280;34053;51.088;6.572;2022-12-20T00:45:18;100972.03;;;10.08;74.48
48244;BME280;34053;51.088;6.572;2022-12-20T00:47:48;100979.72;;;10.16;74.45
48244;BME280;34053;51.088;6.572;2022-12-20T00:50:19;100984.09;;;10.15;74.33
48244;BME280;34053;51.088;6.572;2022-12-20T00:52:49;100971.78;;;10.19;74.68
48244;BME280;34053;51.088;6.572;2022-12-20T00:55:20;100964.78;;;10.19;74.57
48244;BME280;34053;51.088;6.572;2022-12-20T00:57:50;100948.97;;;10.22;73.74
48244;BME280;34053;51.088;6.572;2022-12-20T01:00:21;100946.47;;;10.18;73.60
48244;BME280;34053;51.088;6.572;2022-12-20T01:02:51;100945.56;;;10.19;73.97
48244;BME280;34053;51.088;6.572;2022-12-20T01:05:22;100949.94;;;10.18;73.93
48244;BME280;34053;51.088;6.572;2022-12-20T01:07:52;100941.13;;;10.21;73.65
48244;BME280;34053;51.088;6.572;2022-12-20T01:10:23;100953.25;;;10.28;72.82
48244;BME280;34053;51.088;6.572;2022-12-20T01:12:53;100947.19;;;10.24;73.36
48244;BME280;34053;51.088;6.572;2022-12-20T01:15:24;100943.56;;;10.30;72.99
48244;BME280;34053;51.088;6.572;2022-12-20T01:17:54;100941.00;;;10.27;73.01
48244;BME280;34053;51.088;6.572;2022-12-20T01:20:25;100933.91;;;10.32;72.98
48244;BME280;34053;51.088;6.572;2022-12-20T01:22:55;100934.94;;;10.25;73.42
48244;BME280;34053;51.088;6.572;2022-12-20T01:25:26;100925.19;;;10.30;72.70
48244;BME280;34053;51.088;6.572;2022-12-20T01:27:56;100929.53;;;10.31;73.32
48244;BME280;34053;51.088;6.572;2022-12-20T01:30:27;100940.13;;;10.28;73.20
48244;BME280;34053;51.088;6.572;2022-12-20T01:32:57;100946.00;;;10.41;72.84
48244;BME280;34053;51.088;6.572;2022-12-20T01:35:28;100936.41;;;10.38;72.50
48244;BME280;34053;51.088;6.572;2022-12-20T01:37:58;100940.69;;;10.43;72.83
48244;BME280;34053;51.088;6.572;2022-12-20T01:40:29;100933.56;;;10.49;72.11
48244;BME280;34053;51.088;6.572;2022-12-20T01:42:59;100934.50;;;10.45;72.59
48244;BME280;34053;51.088;6.572;2022-12-20T01:45:30;100939.81;;;10.44;72.63
48244;BME280;34053;51.088;6.572;2022-12-20T01:48:00;100935.34;;;10.46;72.69
48244;BME280;34053;51.088;6.572;2022-12-20T01:50:31;100941.28;;;10.54;72.32
48244;BME280;34053;51.088;6.572;2022-12-20T01:53:03;100947.53;;;10.50;72.89
48244;BME280;34053;51.088;6.572;2022-12-20T01:55:34;100941.44;;;10.48;72.71
48244;BME280;34053;51.088;6.572;2022-12-20T01:58:08;100932.69;;;10.49;72.20
48244;BME280;34053;51.088;6.572;2022-12-20T02:00:40;100927.50;;;10.46;72.84
48244;BME280;34053;51.088;6.572;2022-12-20T02:03:12;100926.53;;;10.50;72.77
48244;BME280;34053;51.088;6.572;2022-12-20T02:05:45;100918.56;;;10.54;72.71
48244;BME280;34053;51.088;6.572;2022-12-20T02:08:18;100909.91;;;10.51;72.41
48244;BME280;34053;51.088;6.572;2022-12-20T02:13:41;100916.00;;;10.51;72.83
48244;BME280;34053;51.088;6.572;2022-12-20T02:16:22;100909.69;;;10.59;72.63
48244;BME280;34053;51.088;6.572;2022-12-20T02:22:13;100893.91;;;10.62;72.23
48244;BME280;34053;51.088;6.572;2022-12-20T02:30:25;100894.91;;;10.56;72.58
48244;BME280;34053;51.088;6.572;2022-12-20T02:33:00;100898.41;;;10.57;73.30
48244;BME280;34053;51.088;6.572;2022-12-20T02:35:34;100891.38;;;10.57;72.89
48244;BME280;34053;51.088;6.572;2022-12-20T02:38:35;100896.63;;;10.57;73.04
48244;BME280;34053;51.088;6.572;2022-12-20T02:41:26;100903.66;;;10.55;73.58
48244;BME280;34053;51.088;6.572;2022-12-20T02:44:07;100919.41;;;10.55;73.45
48244;BME280;34053;51.088;6.572;2022-12-20T02:47:00;100910.84;;;10.47;73.46
48244;BME280;34053;51.088;6.572;2022-12-20T02:49:33;100911.66;;;10.50;74.30
48244;BME280;34053;51.088;6.572;2022-12-20T02:52:09;100920.41;;;10.51;74.33
48244;BME280;34053;51.088;6.572;2022-12-20T02:54:41;100920.28;;;10.55;74.37
48244;BME280;34053;51.088;6.572;2022-12-20T02:57:21;100918.34;;;10.62;74.83
48244;BME280;34053;51.088;6.572;2022-12-20T02:59:58;100917.56;;;10.59;74.78
48244;BME280;34053;51.088;6.572;2022-12-20T03:02:32;100904.56;;;10.54;75.15
48244;BME280;34053;51.088;6.572;2022-12-20T03:05:24;100900.19;;;10.54;75.41
48244;BME280;34053;51.088;6.572;2022-12-20T03:07:55;100902.06;;;10.49;75.73
48244;BME280;34053;51.088;6.572;2022-12-20T03:10:26;100909.06;;;10.49;75.86
48244;BME280;34053;51.088;6.572;2022-12-20T03:12:57;100905.63;;;10.47;75.94
48244;BME280;34053;51.088;6.572;2022-12-20T03:15:27;100905.63;;;10.47;75.72
48244;BME280;34053;51.088;6.572;2022-12-20T03:17:58;100907.38;;;10.46;75.96
48244;BME280;34053;51.088;6.572;2022-12-20T03:20:28;100908.28;;;10.45;76.23
48244;BME280;34053;51.088;6.572;2022-12-20T03:22:59;100906.56;;;10.44;76.23
48244;BME280;34053;51.088;6.572;2022-12-20T03:25:29;100913.59;;;10.42;76.08
48244;BME280;34053;51.088;6.572;2022-12-20T03:28:00;100917.03;;;10.44;76.60
48244;BME280;34053;51.088;6.572;2022-12-20T03:30:30;100907.50;;;10.42;75.98
48244;BME280;34053;51.088;6.572;2022-12-20T03:33:01;100921.47;;;10.42;76.40
48244;BME280;34053;51.088;6.572;2022-12-20T03:35:31;100924.88;;;10.46;76.18
48244;BME280;34053;51.088;6.572;2022-12-20T03:38:02;100915.25;;;10.46;76.10
48244;BME280;34053;51.088;6.572;2022-12-20T03:40:32;100923.16;;;10.45;76.04
48244;BME280;34053;51.088;6.572;2022-12-20T03:43:03;100915.34;;;10.42;76.39
48244;BME280;34053;51.088;6.572;2022-12-20T03:45:34;100921.63;;;10.34;76.71
48244;BME280;34053;51.088;6.572;2022-12-20T03:48:04;100921.63;;;10.34;76.28
48244;BME280;34053;51.088;6.572;2022-12-20T03:50:35;100912.06;;;10.30;76.65
48244;BME280;34053;51.088;6.572;2022-12-20T03:53:06;100915.47;;;10.35;76.76
48244;BME280;34053;51.088;6.572;2022-12-20T03:55:37;100906.72;;;10.36;76.91
48244;BME280;34053;51.088;6.572;2022-12-20T03:58:07;100904.09;;;10.36;76.63
48244;BME280;34053;51.088;6.572;2022-12-20T04:00:38;100907.88;;;10.23;77.17
48244;BME280;34053;51.088;6.572;2022-12-20T04:03:08;100904.41;;;10.22;77.21
48244;BME280;34053;51.088;6.572;2022-12-20T04:05:39;100902.72;;;10.20;77.81
48244;BME280;34053;51.088;6.572;2022-12-20T04:08:09;100898.22;;;10.25;77.06
48244;BME280;34053;51.088;6.572;2022-12-20T04:10:39;100906.09;;;10.25;77.26
48244;BME280;34053;51.088;6.572;2022-12-20T04:13:28;100904.41;;;10.21;77.26
48244;BME280;34053;51.088;6.572;2022-12-20T04:15:59;100913.13;;;10.23;77.54
48244;BME280;34053;51.088;6.572;2022-12-20T04:18:29;100907.13;;;10.18;77.19
48244;BME280;34053;51.088;6.572;2022-12-20T04:21:00;100900.16;;;10.17;77.51
48244;BME280;34053;51.088;6.572;2022-12-20T04:23:31;100900.19;;;10.15;77.52
48244;BME280;34053;51.088;6.572;2022-12-20T04:26:04;100889.72;;;10.15;77.71
48244;BME280;34053;51.088;6.572;2022-12-20T04:28:35;100897.53;;;10.17;77.58
48244;BME280;34053;51.088;6.572;2022-12-20T04:31:05;100899.41;;;10.12;77.79
48244;BME280;34053;51.088;6.572;2022-12-20T04:33:36;100895.94;;;10.10;77.68
48244;BME280;34053;51.088;6.572;2022-12-20T04:36:06;100882.88;;;10.08;77.61
48244;BME280;34053;51.088;6.572;2022-12-20T04:38:37;100875.91;;;10.07;78.16
48244;BME280;34053;51.088;6.572;2022-12-20T04:41:07;100869.78;;;10.06;77.91
48244;BME280;34053;51.088;6.572;2022-12-20T04:43:38;100871.47;;;10.11;78.18
48244;BME280;34053;51.088;6.572;2022-12-20T04:46:08;100873.25;;;10.08;78.29
48244;BME280;34053;51.088;6.572;2022-12-20T04:48:39;100860.19;;;10.05;78.15
48244;BME280;34053;51.088;6.572;2022-12-20T04:51:10;100861.97;;;10.05;78.31
48244;BME280;34053;51.088;6.572;2022-12-20T04:53:40;100870.47;;;10.15;77.84
48244;BME280;34053;51.088;6.572;2022-12-20T04:56:22;100864.41;;;10.13;78.15
48244;BME280;34053;51.088;6.572;2022-12-20T04:58:55;100854.06;;;10.06;78.37
48244;BME280;34053;51.088;6.572;2022-12-20T05:01:26;100860.25;;;10.04;78.20
48244;BME280;34053;51.088;6.572;2022-12-20T05:03:57;100855.03;;;10.02;78.15
48244;BME280;34053;51.088;6.572;2022-12-20T05:06:27;100850.69;;;10.01;78.74
48244;BME280;34053;51.088;6.572;2022-12-20T05:08:58;100852.34;;;10.05;78.40
48244;BME280;34053;51.088;6.572;2022-12-20T05:11:28;100847.19;;;10.02;78.36
48244;BME280;34053;51.088;6.572;2022-12-20T05:13:59;100845.44;;;10.01;78.21
48244;BME280;34053;51.088;6.572;2022-12-20T05:16:29;100842.88;;;10.00;78.19
48244;BME280;34053;51.088;6.572;2022-12-20T05:18:59;100843.56;;;10.08;78.41
48244;BME280;34053;51.088;6.572;2022-12-20T05:21:32;100836.75;;;9.99;78.67
48244;BME280;34053;51.088;6.572;2022-12-20T05:24:21;100829.78;;;9.98;78.31
48244;BME280;34053;51.088;6.572;2022-12-20T05:27:11;100822.81;;;9.97;78.64
48244;BME280;34053;51.088;6.572;2022-12-20T05:29:41;100826.22;;;10.02;78.40
48244;BME280;34053;51.088;6.572;2022-12-20T05:32:11;100830.47;;;10.06;78.11
48244;BME280;34053;51.088;6.572;2022-12-20T05:34:42;100833.03;;;10.10;78.33
48244;BME280;34053;51.088;6.572;2022-12-20T05:37:12;100828.06;;;9.97;78.50
48244;BME280;34053;51.088;6.572;2022-12-20T05:39:43;100821.16;;;9.93;78.71
48244;BME280;34053;51.088;6.572;2022-12-20T05:42:14;100824.69;;;9.92;79.15
48244;BME280;34053;51.088;6.572;2022-12-20T05:44:44;100825.44;;;9.97;78.56
48244;BME280;34053;51.088;6.572;2022-12-20T05:47:15;100808.75;;;10.01;78.14
48244;BME280;34053;51.088;6.572;2022-12-20T05:49:45;100814.94;;;9.97;78.15
48244;BME280;34053;51.088;6.572;2022-12-20T05:52:16;100822.91;;;9.94;78.00
48244;BME280;34053;51.088;6.572;2022-12-20T05:54:46;100814.16;;;9.93;78.20
48244;BME280;34053;51.088;6.572;2022-12-20T05:57:18;100814.94;;;9.99;78.15
48244;BME280;34053;51.088;6.572;2022-12-20T05:59:48;100813.25;;;9.95;77.80
48244;BME280;34053;51.088;6.572;2022-12-20T06:02:19;100809.78;;;9.94;78.39
48244;BME280;34053;51.088;6.572;2022-12-20T06:04:49;100816.75;;;9.95;78.13
48244;BME280;34053;51.088;6.572;2022-12-20T06:07:20;100819.25;;;10.01;77.70
48244;BME280;34053;51.088;6.572;2022-12-20T06:09:51;100821.13;;;9.95;78.60
48244;BME280;34053;51.088;6.572;2022-12-20T06:12:21;100821.91;;;9.98;78.12
48244;BME280;34053;51.088;6.572;2022-12-20T06:14:52;100814.94;;;9.99;78.29
48244;BME280;34053;51.088;6.572;2022-12-20T06:17:23;100811.31;;;10.03;77.61
48244;BME280;34053;51.088;6.572;2022-12-20T06:19:53;100816.66;;;10.00;78.19
48244;BME280;34053;51.088;6.572;2022-12-20T06:22:24;100810.47;;;10.02;77.68
48244;BME280;34053;51.088;6.572;2022-12-20T06:24:54;100809.69;;;9.97;78.13
48244;BME280;34053;51.088;6.572;2022-12-20T06:27:25;100808.78;;;10.00;78.11
48244;BME280;34053;51.088;6.572;2022-12-20T06:29:55;100797.31;;;10.04;78.19
48244;BME280;34053;51.088;6.572;2022-12-20T06:32:26;100798.25;;;10.01;77.91
48244;BME280;34053;51.088;6.572;2022-12-20T06:34:56;100803.41;;;10.04;77.92
48244;BME280;34053;51.088;6.572;2022-12-20T06:37:27;100784.16;;;10.05;78.24
48244;BME280;34053;51.088;6.572;2022-12-20T06:39:57;100774.63;;;10.03;77.81
48244;BME280;34053;51.088;6.572;2022-12-20T06:42:29;100784.06;;;10.12;77.74
48244;BME280;34053;51.088;6.572;2022-12-20T06:44:59;100782.31;;;10.11;77.75
48244;BME280;34053;51.088;6.572;2022-12-20T06:47:30;100782.38;;;10.07;77.64
48244;BME280;34053;51.088;6.572;2022-12-20T06:50:01;100775.25;;;10.13;77.18
48244;BME280;34053;51.088;6.572;2022-12-20T06:52:31;100784.78;;;10.17;77.41
48244;BME280;34053;51.088;6.572;2022-12-20T06:55:02;100787.56;;;10.11;77.29
48244;BME280;34053;51.088;6.572;2022-12-20T06:57:32;100768.66;;;9.96;77.61
48244;BME280;34053;51.088;6.572;2022-12-20T07:00:04;100773.78;;;10.02;77.69
48244;BME280;34053;51.088;6.572;2022-12-20T07:02:35;100770.31;;;10.00;77.63
48244;BME280;34053;51.088;6.572;2022-12-20T07:05:05;100769.38;;;10.03;77.69
48244;BME280;34053;51.088;6.572;2022-12-20T07:07:36;100763.28;;;10.02;77.90
48244;BME280;34053;51.088;6.572;2022-12-20T07:10:07;100764.94;;;10.06;77.27
48244;BME280;34053;51.088;6.572;2022-12-20T07:12:38;100759.00;;;9.98;77.40
48244;BME280;34053;51.088;6.572;2022-12-20T07:15:09;100760.34;;;10.15;77.09
48244;BME280;34053;51.088;6.572;2022-12-20T07:17:39;100756.22;;;10.04;77.19
48244;BME280;34053;51.088;6.572;2022-12-20T07:20:10;100753.50;;;10.09;77.09
48244;BME280;34053;51.088;6.572;2022-12-20T07:22:41;100756.16;;;10.07;77.40
48244;BME280;34053;51.088;6.572;2022-12-20T07:25:11;100741.38;;;10.05;77.04
48244;BME280;34053;51.088;6.572;2022-12-20T07:27:46;100738.81;;;10.03;77.60
48244;BME280;34053;51.088;6.572;2022-12-20T07:30:18;100747.41;;;10.08;77.48
48244;BME280;34053;51.088;6.572;2022-12-20T07:32:49;100743.22;;;10.01;77.76
48244;BME280;34053;51.088;6.572;2022-12-20T07:35:19;100750.03;;;10.08;77.34
48244;BME280;34053;51.088;6.572;2022-12-20T07:37:50;100753.50;;;10.09;77.03
48244;BME280;34053;51.088;6.572;2022-12-20T07:40:22;100757.91;;;10.08;77.31
48244;BME280;34053;51.088;6.572;2022-12-20T07:42:53;100748.19;;;10.12;77.34
48244;BME280;34053;51.088;6.572;2022-12-20T07:45:23;100757.06;;;10.06;77.45
48244;BME280;34053;51.088;6.572;2022-12-20T07:47:54;100751.03;;;10.03;77.62
48244;BME280;34053;51.088;6.572;2022-12-20T07:50:27;100755.31;;;10.07;77.62
48244;BME280;34053;51.088;6.572;2022-12-20T07:52:59;100764.06;;;10.06;77.77
48244;BME280;34053;51.088;6.572;2022-12-20T07:55:30;100770.94;;;10.12;77.60
48244;BME280;34053;51.088;6.572;2022-12-20T07:58:03;100764.75;;;10.13;77.10
48244;BME280;34053;51.088;6.572;2022-12-20T08:00:36;100763.97;;;10.09;77.45
48244;BME280;34053;51.088;6.572;2022-12-20T08:04:13;100763.91;;;10.12;76.81
48244;BME280;34053;51.088;6.572;2022-12-20T08:06:12;100754.22;;;10.16;76.64
48244;BME280;34053;51.088;6.572;2022-12-20T08:08:50;100758.69;;;10.12;77.16
48244;BME280;34053;51.088;6.572;2022-12-20T08:11:24;100758.63;;;10.14;76.93
48244;BME280;34053;51.088;6.572;2022-12-20T08:13:55;100752.44;;;10.18;76.66
48244;BME280;34053;51.088;6.572;2022-12-20T08:16:26;100743.56;;;10.22;77.29
48244;BME280;34053;51.088;6.572;2022-12-20T08:18:56;100744.63;;;10.15;76.40
48244;BME280;34053;51.088;6.572;2022-12-20T08:21:27;100731.50;;;10.15;77.37
48244;BME280;34053;51.088;6.572;2022-12-20T08:23:58;100731.56;;;10.13;77.42
48244;BME280;34053;51.088;6.572;2022-12-20T08:26:28;100728.72;;;10.21;77.53
48244;BME280;34053;51.088;6.572;2022-12-20T08:28:59;100730.50;;;10.20;76.63
48244;BME280;34053;51.088;6.572;2022-12-20T08:31:29;100740.28;;;10.14;76.46
48244;BME280;34053;51.088;6.572;2022-12-20T08:34:00;100740.22;;;10.17;76.70
48244;BME280;34053;51.088;6.572;2022-12-20T08:36:30;100736.75;;;10.15;76.78
48244;BME280;34053;51.088;6.572;2022-12-20T08:39:03;100752.31;;;10.21;76.71
48244;BME280;34053;51.088;6.572;2022-12-20T08:41:34;100748.97;;;10.16;76.82
48244;BME280;34053;51.088;6.572;2022-12-20T08:44:06;100747.19;;;10.18;76.87
48244;BME280;34053;51.088;6.572;2022-12-20T08:46:37;100753.31;;;10.17;77.08
48244;BME280;34053;51.088;6.572;2022-12-20T08:49:07;100745.41;;;10.18;77.17
48244;BME280;34053;51.088;6.572;2022-12-20T08:51:38;100745.38;;;10.20;77.08
48244;BME280;34053;51.088;6.572;2022-12-20T08:54:08;100744.34;;;10.26;76.79
48244;BME280;34053;51.088;6.572;2022-12-20T08:56:39;100744.28;;;10.29;77.16
48244;BME280;34053;51.088;6.572;2022-12-20T08:59:09;100749.56;;;10.27;76.58
48244;BME280;34053;51.088;6.572;2022-12-20T09:01:40;100748.69;;;10.27;77.12
48244;BME280;34053;51.088;6.572;2022-12-20T09:04:11;100748.59;;;10.31;76.74
48244;BME280;34053;51.088;6.572;2022-12-20T09:06:44;100753.75;;;10.34;75.99
48244;BME280;34053;51.088;6.572;2022-12-20T09:09:14;100746.78;;;10.33;76.78
48244;BME280;34053;51.088;6.572;2022-12-20T09:11:45;100748.34;;;10.42;76.42
48244;BME280;34053;51.088;6.572;2022-12-20T09:14:17;100752.03;;;10.33;76.69
48244;BME280;34053;51.088;6.572;2022-12-20T09:16:47;100753.56;;;10.44;77.00
48244;BME280;34053;51.088;6.572;2022-12-20T09:19:18;100751.94;;;10.38;76.81
48244;BME280;34053;51.088;6.572;2022-12-20T09:21:48;100752.94;;;10.32;76.71
48244;BME280;34053;51.088;6.572;2022-12-20T09:24:19;100747.75;;;10.31;76.84
48244;BME280;34053;51.088;6.572;2022-12-20T09:26:49;100741.50;;;10.35;76.71
48244;BME280;34053;51.088;6.572;2022-12-20T09:29:20;100745.91;;;10.34;76.84
48244;BME280;34053;51.088;6.572;2022-12-20T09:31:50;100748.59;;;10.31;76.81
48244;BME280;34053;51.088;6.572;2022-12-20T09:34:21;100739.75;;;10.35;76.24
48244;BME280;34053;51.088;6.572;2022-12-20T09:36:51;100737.25;;;10.31;76.82
48244;BME280;34053;51.088;6.572;2022-12-20T09:39:21;100730.91;;;10.41;76.13
48244;BME280;34053;51.088;6.572;2022-12-20T09:41:52;100724.00;;;10.37;76.21
48244;BME280;34053;51.088;6.572;2022-12-20T09:44:30;100731.13;;;10.30;76.36
48244;BME280;34053;51.088;6.572;2022-12-20T09:47:08;100738.84;;;10.36;76.31
48244;BME280;34053;51.088;6.572;2022-12-20T09:49:44;100733.69;;;10.33;76.45
48244;BME280;34053;51.088;6.572;2022-12-20T09:52:32;100727.41;;;10.41;76.69
48244;BME280;34053;51.088;6.572;2022-12-20T10:00:28;100733.38;;;10.46;76.12
48244;BME280;34053;51.088;6.572;2022-12-20T10:03:04;100736.16;;;10.41;77.01
48244;BME280;34053;51.088;6.572;2022-12-20T10:05:50;100732.47;;;10.47;76.64
48244;BME280;34053;51.088;6.572;2022-12-20T10:13:52;100725.19;;;10.58;76.31
48244;BME280;34053;51.088;6.572;2022-12-20T10:16:41;100725.25;;;10.55;76.33
48244;BME280;34053;51.088;6.572;2022-12-20T10:22:25;100729.66;;;10.54;76.70
48244;BME280;34053;51.088;6.572;2022-12-20T10:27:31;100715.72;;;10.52;76.66
48244;BME280;34053;51.088;6.572;2022-12-20T10:30:15;100710.47;;;10.52;76.43
48244;BME280;34053;51.088;6.572;2022-12-20T10:32:49;100700.84;;;10.53;76.92
48244;BME280;34053;51.088;6.572;2022-12-20T10:35:24;100702.47;;;10.57;76.83
48244;BME280;34053;51.088;6.572;2022-12-20T10:38:01;100694.59;;;10.57;75.94
48244;BME280;34053;51.088;6.572;2022-12-20T10:40:38;100702.28;;;10.63;76.24
48244;BME280;34053;51.088;6.572;2022-12-20T10:43:20;100692.50;;;10.70;76.09
48244;BME280;34053;51.088;6.572;2022-12-20T10:46:00;100690.97;;;10.63;75.81
48244;BME280;34053;51.088;6.572;2022-12-20T10:48:32;100685.66;;;10.64;76.37
48244;BME280;34053;51.088;6.572;2022-12-20T11:01:47;100673.16;;;10.74;75.06
48244;BME280;34053;51.088;6.572;2022-12-20T11:07:00;100669.91;;;10.96;74.90
48244;BME280;34053;51.088;6.572;2022-12-20T11:09:35;100657.72;;;10.93;75.46
48244;BME280;34053;51.088;6.572;2022-12-20T11:12:14;100659.53;;;10.91;75.87
48244;BME280;34053;51.088;6.572;2022-12-20T11:14:46;100662.16;;;10.91;75.23
48244;BME280;34053;51.088;6.572;2022-12-20T11:17:36;100651.66;;;10.91;75.67
48244;BME280;34053;51.088;6.572;2022-12-20T11:33:47;100644.50;;;10.96;75.49
48244;BME280;34053;51.088;6.572;2022-12-20T11:36:37;100642.63;;;11.00;75.56
48244;BME280;34053;51.088;6.572;2022-12-20T11:39:50;100632.09;;;11.01;74.94
48244;BME280;34053;51.088;6.572;2022-12-20T11:45:46;100623.03;;;11.12;74.80
48244;BME280;34053;51.088;6.572;2022-12-20T11:48:28;100631.09;;;11.06;74.92
48244;BME280;34053;51.088;6.572;2022-12-20T11:51:06;100625.84;;;11.06;74.96
48244;BME280;34053;51.088;6.572;2022-12-20T11:53:53;100620.44;;;11.10;74.74
48244;BME280;34053;51.088;6.572;2022-12-20T11:56:36;100618.50;;;11.17;74.48
48244;BME280;34053;51.088;6.572;2022-12-20T11:59:23;100623.47;;;11.26;74.51
48244;BME280;34053;51.088;6.572;2022-12-20T12:02:03;100619.81;;;11.30;73.73
48244;BME280;34053;51.088;6.572;2022-12-20T12:07:34;100618.22;;;11.26;74.41
48244;BME280;34053;51.088;6.572;2022-12-20T12:10:36;100625.84;;;11.34;74.22
48244;BME280;34053;51.088;6.572;2022-12-20T12:13:31;100638.75;;;11.42;73.60
48244;BME280;34053;51.088;6.572;2022-12-20T12:18:44;100628.19;;;11.43;74.91
48244;BME280;34053;51.088;6.572;2022-12-20T12:21:32;100631.69;;;11.44;75.14
48244;BME280;34053;51.088;6.572;2022-12-20T12:24:28;100629.06;;;11.42;74.89
48244;BME280;34053;51.088;6.572;2022-12-20T12:27:01;100630.03;;;11.40;76.04
48244;BME280;34053;51.088;6.572;2022-12-20T12:29:33;100614.19;;;11.43;77.12
48244;BME280;34053;51.088;6.572;2022-12-20T12:32:46;100615.16;;;11.40;77.57
48244;BME280;34053;51.088;6.572;2022-12-20T12:43:55;100591.66;;;11.36;78.40
48244;BME280;34053;51.088;6.572;2022-12-20T12:46:31;100593.41;;;11.35;78.61
48244;BME280;34053;51.088;6.572;2022-12-20T12:49:24;100581.84;;;11.41;78.00
48244;BME280;34053;51.088;6.572;2022-12-20T12:52:02;100592.44;;;11.38;77.54
48244;BME280;34053;51.088;6.572;2022-12-20T12:54:37;100586.41;;;11.36;77.79
48244;BME280;34053;51.088;6.572;2022-12-20T12:57:16;100589.81;;;11.38;78.06
48244;BME280;34053;51.088;6.572;2022-12-20T12:59:49;100588.09;;;11.37;77.57
48244;BME280;34053;51.088;6.572;2022-12-20T13:02:26;100586.28;;;11.39;77.18
48244;BME280;34053;51.088;6.572;2022-12-20T13:17:50;100571.44;;;11.38;77.01
48244;BME280;34053;51.088;6.572;2022-12-20T13:20:29;100578.31;;;11.42;76.24
48244;BME280;34053;51.088;6.572;2022-12-20T13:25:38;100565.41;;;11.34;75.98
48244;BME280;34053;51.088;6.572;2022-12-20T13:30:46;100569.00;;;11.31;75.17
48244;BME280;34053;51.088;6.572;2022-12-20T13:33:23;100567.19;;;11.33;75.42
48244;BME280;34053;51.088;6.572;2022-12-20T13:43:51;100572.47;;;11.33;75.08
48244;BME280;34053;51.088;6.572;2022-12-20T13:46:41;100581.03;;;11.39;74.63
48244;BME280;34053;51.088;6.572;2022-12-20T13:49:28;100576.69;;;11.38;75.40
48244;BME280;34053;51.088;6.572;2022-12-20T13:54:44;100576.59;;;11.41;75.25
48244;BME280;34053;51.088;6.572;2022-12-20T13:57:18;100573.22;;;11.37;74.87
48244;BME280;34053;51.088;6.572;2022-12-20T13:59:53;100571.41;;;11.39;75.01
48244;BME280;34053;51.088;6.572;2022-12-20T14:02:34;100582.69;;;11.41;74.79
48244;BME280;34053;51.088;6.572;2022-12-20T14:05:20;100574.06;;;11.38;75.13
48244;BME280;34053;51.088;6.572;2022-12-20T14:07:58;100584.69;;;11.34;75.64
48244;BME280;34053;51.088;6.572;2022-12-20T14:10:31;100581.38;;;11.28;75.91
48244;BME280;34053;51.088;6.572;2022-12-20T14:13:02;100579.31;;;11.38;75.96
48244;BME280;34053;51.088;6.572;2022-12-20T14:15:34;100569.00;;;11.31;76.38
48244;BME280;34053;51.088;6.572;2022-12-20T14:18:15;100576.19;;;11.26;76.83
48244;BME280;34053;51.088;6.572;2022-12-20T14:20:48;100573.50;;;11.28;76.96
48244;BME280;34053;51.088;6.572;2022-12-20T14:23:22;100573.44;;;11.29;76.98
48244;BME280;34053;51.088;6.572;2022-12-20T14:25:57;100574.34;;;11.28;76.88
48244;BME280;34053;51.088;6.572;2022-12-20T14:28:39;100568.94;;;11.34;77.26
48244;BME280;34053;51.088;6.572;2022-12-20T14:36:45;100566.38;;;11.31;77.05
48244;BME280;34053;51.088;6.572;2022-12-20T14:39:20;100562.94;;;11.29;77.64
48244;BME280;34053;51.088;6.572;2022-12-20T14:42:00;100562.09;;;11.29;77.80
48244;BME280;34053;51.088;6.572;2022-12-20T14:44:31;100563.06;;;11.26;77.79
48244;BME280;34053;51.088;6.572;2022-12-20T14:47:11;100555.13;;;11.28;77.54
48244;BME280;34053;51.088;6.572;2022-12-20T14:49:49;100563.84;;;11.28;77.67
48244;BME280;34053;51.088;6.572;2022-12-20T14:52:42;100555.19;;;11.26;77.60
48244;BME280;34053;51.088;6.572;2022-12-20T14:55:18;100550.84;;;11.25;77.60
48244;BME280;34053;51.088;6.572;2022-12-20T14:57:54;100552.59;;;11.25;78.38
48244;BME280;34053;51.088;6.572;2022-12-20T15:00:30;100547.41;;;11.23;77.87
48244;BME280;34053;51.088;6.572;2022-12-20T15:03:17;100553.47;;;11.25;77.92
48244;BME280;34053;51.088;6.572;2022-12-20T15:05:50;100545.66;;;11.22;78.26
48244;BME280;34053;51.088;6.572;2022-12-20T15:13:44;100538.75;;;11.20;78.09
48244;BME280;34053;51.088;6.572;2022-12-20T15:16:23;100541.44;;;11.18;78.49